Terminal Aerodrome Forecast
Issued by NWS

Home | Current Version | Previous Version | Graphics & Text | Print | Product List | Glossary On
Versions: 1 2 3 4 5 6 7 8 9 10 11 12 13 14 15 16
000
FTUS43 KLSX 301120
TAFSUS
TAF
KSUS 301120Z 3012/0112 26009KT P6SM SKC
     FM301700 26012G20KT P6SM BKN045
     FM010000 26008KT P6SM BKN045
     FM010300 26007KT P6SM SKC=

USA.gov is the U.S. government's official web portal to all federal, state and local government web resources and services.